South San Francisco, California
Current Conditions -  °F | °C
As of 2:56 PM on Saturday 25 Oct 2014 (Local Time) from KSFO Reporting Station
Broken Clouds Broken Clouds  
Wind Chill: 70°   Ceiling: 4000
Heat Index: 70°   Visibility: 10mi
Dew Point: 58°   Wind: 12mph
Humidity: 65%   Direction: 230°SW
Pressure: 30.06"   Gusts: NA
Location:  37.66°N, 122.41°W
Report Text: KSFO 252156Z 23010KT 10SM SCT029 BKN040 BKN055 21/14 A3006 RMK AO2 SLP180 T02110144 $
Loading
Personal Weather Stations






























Interactive Weather Map
Tropical Storm Tracking
New forecast layout! Learn more

10-Day Weather Forecast

Advertisements
Track Severe Weather on mobile